createdAt,value
2022-09-24T00:01:27.884Z,12.00
2022-09-24T00:04:01.040Z,11.90
2022-09-24T00:06:29.819Z,11.80
2022-09-24T00:08:57.591Z,11.80
2022-09-24T00:11:27.632Z,11.80
2022-09-24T00:13:57.010Z,11.80
2022-09-24T00:16:26.744Z,11.80
2022-09-24T00:18:54.103Z,11.90
2022-09-24T00:21:23.925Z,11.90
2022-09-24T00:23:52.960Z,11.90
2022-09-24T00:26:38.680Z,11.90
2022-09-24T00:29:05.761Z,11.90
2022-09-24T00:31:32.535Z,11.80
2022-09-24T00:34:00.919Z,11.80
2022-09-24T00:36:27.973Z,11.80
2022-09-24T00:38:57.574Z,11.80
2022-09-24T00:41:30.613Z,11.70
2022-09-24T00:43:57.512Z,11.60
2022-09-24T00:46:42.274Z,11.60
2022-09-24T00:49:13.163Z,11.60
2022-09-24T00:51:42.652Z,11.50
2022-09-24T00:54:13.425Z,11.50
2022-09-24T00:56:42.900Z,11.50
2022-09-24T00:59:13.917Z,11.50
2022-09-24T01:01:40.751Z,11.40
2022-09-24T01:04:07.683Z,11.40
2022-09-24T01:06:34.656Z,11.30
2022-09-24T01:09:01.344Z,11.20
2022-09-24T01:11:51.440Z,11.20
2022-09-24T01:14:46.529Z,11.10
2022-09-24T01:17:44.043Z,11.00
2022-09-24T01:20:47.131Z,11.00
2022-09-24T01:23:46.305Z,11.00
2022-09-24T01:26:19.466Z,11.10
2022-09-24T01:29:32.031Z,11.10
2022-09-24T01:32:31.592Z,11.10
2022-09-24T01:35:51.296Z,11.00
2022-09-24T01:38:27.119Z,10.90
2022-09-24T01:40:55.982Z,10.80
2022-09-24T01:43:25.793Z,10.70
2022-09-24T01:45:53.077Z,10.70
2022-09-24T01:48:21.877Z,10.70
2022-09-24T01:51:02.666Z,10.60
2022-09-24T01:53:39.016Z,10.50
2022-09-24T01:56:10.721Z,10.40
2022-09-24T01:58:44.762Z,10.40
2022-09-24T02:01:17.360Z,10.40
2022-09-24T02:03:53.134Z,10.40
2022-09-24T02:06:32.584Z,10.30
2022-09-24T02:08:59.420Z,10.30
2022-09-24T02:11:27.970Z,10.30
2022-09-24T02:14:00.800Z,10.30
2022-09-24T02:16:33.209Z,10.30
2022-09-24T02:19:04.139Z,10.30
2022-09-24T02:21:32.883Z,10.40
2022-09-24T02:24:24.284Z,10.40
2022-09-24T02:26:51.234Z,10.30
2022-09-24T02:29:18.552Z,10.40
2022-09-24T02:31:49.446Z,10.30
2022-09-24T02:34:21.038Z,10.30
2022-09-24T02:36:53.511Z,10.20
2022-09-24T02:39:20.666Z,10.10
2022-09-24T02:41:49.536Z,10.00
2022-09-24T02:44:17.212Z,10.00
2022-09-24T02:46:45.393Z,9.90
2022-09-24T02:49:13.961Z,9.80
2022-09-24T02:51:42.534Z,9.80
2022-09-24T02:54:10.211Z,9.80
2022-09-24T02:56:37.427Z,9.70
2022-09-24T02:59:04.634Z,9.50
2022-09-24T03:01:32.636Z,9.30
2022-09-24T03:03:59.479Z,9.30
2022-09-24T03:06:26.451Z,9.30
2022-09-24T03:08:53.680Z,9.30
2022-09-24T03:11:21.710Z,9.30
2022-09-24T03:13:48.884Z,9.40
2022-09-24T03:16:16.241Z,9.30
2022-09-24T03:18:43.315Z,9.30
2022-09-24T03:21:14.931Z,9.30
2022-09-24T03:23:41.941Z,9.30
2022-09-24T03:26:09.182Z,9.30
2022-09-24T03:28:36.015Z,9.30
2022-09-24T03:31:03.010Z,9.20
2022-09-24T03:33:32.811Z,9.20
2022-09-24T03:36:02.618Z,9.20
2022-09-24T03:38:30.581Z,9.30
2022-09-24T03:40:58.460Z,9.30
2022-09-24T03:43:25.606Z,9.30
2022-09-24T03:45:52.557Z,9.40
2022-09-24T03:48:21.320Z,9.40
2022-09-24T03:50:48.522Z,9.50
2022-09-24T03:53:15.445Z,9.40
2022-09-24T03:55:43.714Z,9.50
2022-09-24T03:58:11.204Z,9.50
2022-09-24T04:00:41.127Z,9.40
2022-09-24T04:03:08.516Z,9.40
2022-09-24T04:05:36.016Z,9.50
2022-09-24T04:08:03.300Z,9.50
2022-09-24T04:10:29.971Z,9.50
2022-09-24T04:12:56.983Z,9.50
2022-09-24T04:15:23.730Z,9.50
2022-09-24T04:17:59.807Z,9.50
2022-09-24T04:20:29.289Z,9.40
2022-09-24T04:22:58.085Z,9.40
2022-09-24T04:25:27.138Z,9.40
2022-09-24T04:27:56.050Z,9.30
2022-09-24T04:30:23.953Z,9.30
2022-09-24T04:32:51.541Z,9.20
2022-09-24T04:35:23.402Z,9.20
2022-09-24T04:37:50.307Z,9.10
2022-09-24T04:40:18.062Z,9.10
2022-09-24T04:42:46.250Z,9.20
2022-09-24T04:45:14.567Z,9.20
2022-09-24T04:47:41.751Z,9.20
2022-09-24T04:50:11.319Z,9.20
2022-09-24T04:52:39.162Z,9.20
2022-09-24T04:55:06.342Z,9.20
2022-09-24T04:57:35.012Z,9.10
2022-09-24T05:00:03.991Z,9.10
2022-09-24T05:02:30.740Z,9.10
2022-09-24T05:04:57.636Z,9.10
2022-09-24T05:07:24.434Z,9.00
2022-09-24T05:09:51.041Z,9.00
2022-09-24T05:12:20.464Z,9.00
2022-09-24T05:14:47.146Z,9.00
2022-09-24T05:17:13.779Z,9.00
2022-09-24T05:19:40.634Z,9.00
2022-09-24T05:22:07.234Z,9.00
2022-09-24T05:24:33.897Z,9.00
2022-09-24T05:27:10.315Z,9.00
2022-09-24T05:29:40.914Z,9.00
2022-09-24T05:32:10.295Z,9.00
2022-09-24T05:34:37.110Z,9.00
2022-09-24T05:37:04.236Z,9.10
2022-09-24T05:39:33.887Z,9.20
2022-09-24T05:42:04.172Z,9.30
2022-09-24T05:44:31.839Z,9.30
2022-09-24T05:46:58.607Z,9.40
2022-09-24T05:49:25.560Z,9.40
2022-09-24T05:51:52.316Z,9.50
2022-09-24T05:54:19.490Z,9.50
2022-09-24T05:56:46.227Z,9.60
2022-09-24T05:59:13.413Z,9.70
2022-09-24T06:01:40.345Z,9.80
2022-09-24T06:04:09.135Z,9.90
2022-09-24T06:06:36.120Z,9.90
2022-09-24T06:09:03.365Z,10.00
2022-09-24T06:11:39.184Z,10.10
2022-09-24T06:14:08.779Z,10.10
2022-09-24T06:16:36.159Z,10.10
2022-09-24T06:19:02.928Z,10.20
2022-09-24T06:21:29.610Z,10.20
2022-09-24T06:23:56.583Z,10.30
2022-09-24T06:26:23.355Z,10.40
2022-09-24T06:28:49.998Z,10.50
2022-09-24T06:31:16.824Z,10.60
2022-09-24T06:33:43.646Z,10.80
2022-09-24T06:36:10.314Z,10.90
2022-09-24T06:38:39.277Z,11.10
2022-09-24T06:41:06.795Z,11.20
2022-09-24T06:43:33.892Z,11.40
2022-09-24T06:46:01.151Z,11.60
2022-09-24T06:48:28.626Z,11.80
2022-09-24T06:50:56.440Z,11.90
2022-09-24T06:53:23.749Z,12.10
2022-09-24T06:55:50.505Z,12.20
2022-09-24T06:58:23.703Z,12.30
2022-09-24T07:00:52.935Z,12.50
2022-09-24T07:03:20.384Z,12.60
2022-09-24T07:05:47.096Z,12.60
2022-09-24T07:08:13.756Z,12.80
2022-09-24T07:10:45.467Z,12.80
2022-09-24T07:13:13.561Z,12.90
2022-09-24T07:15:40.961Z,13.10
2022-09-24T07:18:07.739Z,13.20
2022-09-24T07:20:36.813Z,13.30
2022-09-24T07:23:08.749Z,13.40
2022-09-24T07:25:36.642Z,13.60
2022-09-24T07:28:05.796Z,13.80
2022-09-24T07:30:33.932Z,14.10
2022-09-24T07:33:00.622Z,14.30
2022-09-24T07:35:28.624Z,14.60
2022-09-24T07:38:01.708Z,14.90
2022-09-24T07:40:29.469Z,15.20
2022-09-24T07:42:56.879Z,15.60
2022-09-24T07:45:27.919Z,15.80
2022-09-24T07:48:02.050Z,16.00
2022-09-24T07:50:31.852Z,16.00
2022-09-24T07:52:59.214Z,16.00
2022-09-24T07:55:26.207Z,16.10
2022-09-24T07:57:56.969Z,16.10
2022-09-24T08:00:25.275Z,16.10
2022-09-24T08:02:53.748Z,16.00
2022-09-24T08:05:20.653Z,16.00
2022-09-24T08:07:55.157Z,15.90
2022-09-24T08:10:22.901Z,15.90
2022-09-24T08:12:49.836Z,15.80
2022-09-24T08:15:16.818Z,15.70
2022-09-24T08:17:43.437Z,15.80
2022-09-24T08:20:10.939Z,15.90
2022-09-24T08:22:37.850Z,16.00
2022-09-24T08:25:06.045Z,16.20
2022-09-24T08:27:32.974Z,16.40
2022-09-24T08:30:00.630Z,16.60
2022-09-24T08:32:28.943Z,16.90
2022-09-24T08:34:55.644Z,17.20
2022-09-24T08:37:22.299Z,17.60
2022-09-24T08:39:48.964Z,17.80
2022-09-24T08:42:25.650Z,17.90
2022-09-24T08:45:13.559Z,18.00
2022-09-24T08:48:00.448Z,18.30
2022-09-24T08:50:35.944Z,19.20
2022-09-24T08:53:26.935Z,20.20
2022-09-24T08:55:58.295Z,20.90
2022-09-24T08:58:40.511Z,21.20
2022-09-24T09:01:10.295Z,21.50
2022-09-24T09:03:59.774Z,21.50
2022-09-24T09:06:54.502Z,21.30
2022-09-24T09:09:28.560Z,21.70
2022-09-24T09:12:02.018Z,23.10
2022-09-24T09:14:54.991Z,24.80
2022-09-24T09:17:42.898Z,25.50
2022-09-24T09:20:35.982Z,26.90
2022-09-24T09:23:12.578Z,29.30
2022-09-24T09:25:45.817Z,30.40
2022-09-24T09:28:15.280Z,29.70
2022-09-24T09:30:52.235Z,28.60
2022-09-24T09:33:24.628Z,27.70
2022-09-24T09:36:22.393Z,27.00
2022-09-24T09:38:54.645Z,26.30
2022-09-24T09:41:36.347Z,26.50
2022-09-24T09:44:16.303Z,27.80
2022-09-24T09:47:13.133Z,29.70
2022-09-24T09:49:41.244Z,30.30
2022-09-24T09:52:19.432Z,30.20
2022-09-24T09:54:46.828Z,30.00
2022-09-24T09:57:18.603Z,30.50
2022-09-24T09:59:53.908Z,32.10
2022-09-24T10:02:35.285Z,33.70
2022-09-24T10:05:04.309Z,33.80
2022-09-24T10:07:31.650Z,33.00
2022-09-24T10:10:18.759Z,31.80
2022-09-24T10:12:45.692Z,30.20
2022-09-24T10:15:15.236Z,28.80
2022-09-24T10:17:44.021Z,27.70
2022-09-24T10:20:26.385Z,26.80
2022-09-24T10:22:58.011Z,26.30
2022-09-24T10:25:27.598Z,25.90
2022-09-24T10:28:18.451Z,25.80
2022-09-24T10:31:05.470Z,25.70
2022-09-24T10:33:40.566Z,25.30
2022-09-24T10:36:19.037Z,24.40
2022-09-24T10:38:45.785Z,23.70
2022-09-24T10:41:27.248Z,23.30
2022-09-24T10:43:55.011Z,22.80
2022-09-24T10:46:31.275Z,22.40
2022-09-24T10:49:13.169Z,22.30
2022-09-24T10:51:47.668Z,22.10
2022-09-24T10:54:41.468Z,22.20
2022-09-24T10:57:43.396Z,22.40
2022-09-24T11:00:10.546Z,22.30
2022-09-24T11:03:12.336Z,22.40
2022-09-24T11:06:01.180Z,22.60
2022-09-24T11:08:43.177Z,23.00
2022-09-24T11:11:40.073Z,23.20
2022-09-24T11:14:35.773Z,23.60
2022-09-24T11:17:27.689Z,24.10
2022-09-24T11:20:14.014Z,24.70
2022-09-24T11:22:57.916Z,25.20
2022-09-24T11:25:34.282Z,25.70
2022-09-24T11:28:32.869Z,26.30
2022-09-24T11:31:02.222Z,26.40
2022-09-24T11:34:14.675Z,26.20
2022-09-24T11:36:56.251Z,26.10
2022-09-24T11:39:33.120Z,25.90
2022-09-24T11:42:29.015Z,25.70
2022-09-24T11:45:36.546Z,25.50
2022-09-24T11:48:15.172Z,25.20
2022-09-24T11:51:31.799Z,25.00
2022-09-24T11:54:17.665Z,25.10
2022-09-24T11:56:50.170Z,25.30
2022-09-24T11:59:31.017Z,25.20
2022-09-24T12:02:13.246Z,25.10
2022-09-24T12:04:49.146Z,25.10
2022-09-24T12:07:28.214Z,25.00
2022-09-24T12:10:02.409Z,24.80
2022-09-24T12:12:40.649Z,24.10
2022-09-24T12:15:12.652Z,24.00
2022-09-24T12:17:45.423Z,24.10
2022-09-24T12:20:20.279Z,24.20
2022-09-24T12:22:50.519Z,24.40
2022-09-24T12:25:17.562Z,24.60
2022-09-24T12:27:45.603Z,24.80
2022-09-24T12:31:01.528Z,24.60
2022-09-24T12:33:39.127Z,24.10
2022-09-24T12:36:19.635Z,23.40
2022-09-24T12:39:01.249Z,23.00
2022-09-24T12:41:33.769Z,22.90
2022-09-24T12:44:13.370Z,23.10
2022-09-24T12:46:49.319Z,23.20
2022-09-24T12:49:24.840Z,23.30
2022-09-24T12:52:00.028Z,23.30
2022-09-24T12:54:35.112Z,23.30
2022-09-24T12:57:21.320Z,23.20
2022-09-24T12:59:53.724Z,23.30
2022-09-24T13:02:21.711Z,23.20
2022-09-24T13:05:05.221Z,23.20
2022-09-24T13:07:40.992Z,23.30
2022-09-24T13:10:16.633Z,23.50
2022-09-24T13:12:44.625Z,23.60
2022-09-24T13:15:29.597Z,23.40
2022-09-24T13:18:11.601Z,23.20
2022-09-24T13:20:40.363Z,22.80
2022-09-24T13:23:21.854Z,22.60
2022-09-24T13:26:00.065Z,22.50
2022-09-24T13:28:38.246Z,22.60
2022-09-24T13:31:13.006Z,22.50
2022-09-24T13:33:45.247Z,22.50
2022-09-24T13:36:14.306Z,22.60
2022-09-24T13:38:59.019Z,22.50
2022-09-24T13:41:45.121Z,22.40
2022-09-24T13:44:34.292Z,22.20
2022-09-24T13:47:26.766Z,22.10
2022-09-24T13:49:56.947Z,22.10
2022-09-24T13:52:41.620Z,22.10
2022-09-24T13:55:17.259Z,22.00
2022-09-24T13:57:45.588Z,21.90
2022-09-24T14:00:16.938Z,21.80
2022-09-24T14:02:52.821Z,21.80
2022-09-24T14:05:20.065Z,21.80
2022-09-24T14:08:07.622Z,21.80
2022-09-24T14:10:36.070Z,21.80
2022-09-24T14:13:26.258Z,21.70
2022-09-24T14:15:58.801Z,21.60
2022-09-24T14:18:29.408Z,21.60
2022-09-24T14:21:04.917Z,21.50
2022-09-24T14:23:37.304Z,21.50
2022-09-24T14:26:05.120Z,21.50
2022-09-24T14:28:33.357Z,21.40
2022-09-24T14:31:00.928Z,21.40
2022-09-24T14:33:32.211Z,21.30
2022-09-24T14:36:01.666Z,21.30
2022-09-24T14:38:35.557Z,21.20
2022-09-24T14:41:24.247Z,21.30
2022-09-24T14:44:00.216Z,21.10
2022-09-24T14:46:37.118Z,21.10
2022-09-24T14:49:29.672Z,21.00
2022-09-24T14:52:01.675Z,21.00
2022-09-24T14:54:40.128Z,20.90
2022-09-24T14:57:19.679Z,20.80
2022-09-24T14:59:47.164Z,20.70
2022-09-24T15:02:21.159Z,20.70
2022-09-24T15:04:51.841Z,20.60
2022-09-24T15:07:24.355Z,20.70
2022-09-24T15:09:53.565Z,20.70
2022-09-24T15:12:30.846Z,20.70
2022-09-24T15:15:02.507Z,20.80
2022-09-24T15:17:34.262Z,20.80
2022-09-24T15:20:02.545Z,20.80
2022-09-24T15:22:30.616Z,20.80
2022-09-24T15:25:01.587Z,20.80
2022-09-24T15:27:36.514Z,20.80
2022-09-24T15:30:07.614Z,20.80
2022-09-24T15:32:37.585Z,20.70
2022-09-24T15:35:09.402Z,20.70
2022-09-24T15:37:39.470Z,20.70
2022-09-24T15:40:22.513Z,20.60
2022-09-24T15:42:50.382Z,20.60
2022-09-24T15:45:21.272Z,20.60
2022-09-24T15:47:49.206Z,20.60
2022-09-24T15:50:16.552Z,20.60
2022-09-24T15:52:48.569Z,20.50
2022-09-24T15:55:19.219Z,20.60
2022-09-24T15:57:46.753Z,20.60
2022-09-24T16:00:19.242Z,20.50
2022-09-24T16:02:50.255Z,20.60
2022-09-24T16:05:17.031Z,20.60
2022-09-24T16:07:43.788Z,20.50
2022-09-24T16:10:12.847Z,20.60
2022-09-24T16:12:40.440Z,20.60
2022-09-24T16:15:07.728Z,20.60
2022-09-24T16:17:34.449Z,20.60
2022-09-24T16:20:01.329Z,20.60
2022-09-24T16:22:27.943Z,20.50
2022-09-24T16:24:54.571Z,20.50
2022-09-24T16:27:21.397Z,20.50
2022-09-24T16:29:48.018Z,20.10
2022-09-24T16:32:14.779Z,20.30
2022-09-24T16:34:41.427Z,20.20
2022-09-24T16:37:09.258Z,20.10
2022-09-24T16:39:35.914Z,20.10
2022-09-24T16:42:02.558Z,20.00
2022-09-24T16:44:29.178Z,19.90
2022-09-24T16:46:55.917Z,19.90
2022-09-24T16:49:23.670Z,19.80
2022-09-24T16:51:50.396Z,19.70
2022-09-24T16:54:18.922Z,19.60
2022-09-24T16:56:48.221Z,19.50
2022-09-24T16:59:16.358Z,19.40
2022-09-24T17:01:43.069Z,19.40
2022-09-24T17:04:09.854Z,19.20
2022-09-24T17:06:37.746Z,19.20
2022-09-24T17:09:23.143Z,19.10
2022-09-24T17:11:49.890Z,19.00
2022-09-24T17:14:17.840Z,18.80
2022-09-24T17:16:45.175Z,19.00
2022-09-24T17:19:12.346Z,18.90
2022-09-24T17:21:41.840Z,18.80
2022-09-24T17:24:09.052Z,18.80
2022-09-24T17:26:37.094Z,18.70
2022-09-24T17:29:04.382Z,18.70
2022-09-24T17:31:31.595Z,18.70
2022-09-24T17:34:03.292Z,18.60
2022-09-24T17:36:32.369Z,18.50
2022-09-24T17:39:00.097Z,18.50
2022-09-24T17:41:28.683Z,18.50
2022-09-24T17:43:58.607Z,18.40
2022-09-24T17:46:27.477Z,18.40
2022-09-24T17:48:55.966Z,18.30
2022-09-24T17:51:30.264Z,18.20
2022-09-24T17:53:56.860Z,18.20
2022-09-24T17:56:25.810Z,18.10
2022-09-24T17:58:54.763Z,18.00
2022-09-24T18:01:27.880Z,17.80
2022-09-24T18:03:56.670Z,17.60
2022-09-24T18:06:27.098Z,17.40
2022-09-24T18:08:56.961Z,17.20
2022-09-24T18:11:29.651Z,17.10
2022-09-24T18:14:00.045Z,16.90
2022-09-24T18:16:29.557Z,16.70
2022-09-24T18:18:58.035Z,16.50
2022-09-24T18:21:24.767Z,16.30
2022-09-24T18:23:55.867Z,16.10
2022-09-24T18:26:29.399Z,16.00
2022-09-24T18:28:58.147Z,15.90
2022-09-24T18:31:30.597Z,15.80
2022-09-24T18:34:06.794Z,15.70
2022-09-24T18:36:38.394Z,15.70
2022-09-24T18:39:08.183Z,15.60
2022-09-24T18:41:36.296Z,15.60
2022-09-24T18:44:04.469Z,15.50
2022-09-24T18:46:32.466Z,15.50
2022-09-24T18:49:00.591Z,15.40
2022-09-24T18:51:30.691Z,15.50
2022-09-24T18:54:00.165Z,15.40
2022-09-24T18:56:27.657Z,15.40
2022-09-24T18:59:16.597Z,15.40
2022-09-24T19:01:44.489Z,15.40
2022-09-24T19:04:13.397Z,15.40
2022-09-24T19:06:42.547Z,15.20
2022-09-24T19:09:10.623Z,15.20
2022-09-24T19:11:37.612Z,15.20
2022-09-24T19:14:04.352Z,15.20
2022-09-24T19:16:31.262Z,15.20
2022-09-24T19:18:59.308Z,15.20
2022-09-24T19:21:25.971Z,15.20
2022-09-24T19:23:54.776Z,15.20
2022-09-24T19:26:32.847Z,15.20
2022-09-24T19:28:59.619Z,15.20
2022-09-24T19:31:32.422Z,15.10
2022-09-24T19:34:02.888Z,15.10
2022-09-24T19:36:30.190Z,15.10
2022-09-24T19:38:57.872Z,15.10
2022-09-24T19:41:26.410Z,15.10
2022-09-24T19:43:55.234Z,15.00
2022-09-24T19:46:26.200Z,15.00
2022-09-24T19:48:54.708Z,15.00
2022-09-24T19:51:28.465Z,14.90
2022-09-24T19:53:57.843Z,15.00
2022-09-24T19:56:25.359Z,14.90
2022-09-24T19:58:54.108Z,14.90
2022-09-24T20:01:23.001Z,14.90
2022-09-24T20:03:50.174Z,14.90
2022-09-24T20:06:22.585Z,14.90
2022-09-24T20:08:49.525Z,14.90
2022-09-24T20:11:19.318Z,14.90
2022-09-24T20:13:46.906Z,14.90
2022-09-24T20:16:16.205Z,14.90
2022-09-24T20:18:43.557Z,14.90
2022-09-24T20:21:13.221Z,14.90
2022-09-24T20:23:40.607Z,14.90
2022-09-24T20:26:25.749Z,14.90
2022-09-24T20:28:52.860Z,14.80
2022-09-24T20:31:21.040Z,14.80
2022-09-24T20:33:48.811Z,14.80
2022-09-24T20:36:18.855Z,14.80
2022-09-24T20:38:48.376Z,14.80
2022-09-24T20:41:17.806Z,14.70
2022-09-24T20:43:45.497Z,14.70
2022-09-24T20:46:24.342Z,14.70
2022-09-24T20:49:00.598Z,14.70
2022-09-24T20:51:29.507Z,14.70
2022-09-24T20:53:58.003Z,14.80
2022-09-24T20:56:24.929Z,14.70
2022-09-24T20:58:53.098Z,14.70
2022-09-24T21:01:20.954Z,14.80
2022-09-24T21:03:50.674Z,14.80
2022-09-24T21:06:17.978Z,14.80
2022-09-24T21:08:46.473Z,14.70
2022-09-24T21:11:17.550Z,14.50
2022-09-24T21:13:49.882Z,14.50
2022-09-24T21:16:19.810Z,14.50
2022-09-24T21:18:47.733Z,14.40
2022-09-24T21:21:22.753Z,14.20
2022-09-24T21:23:52.729Z,14.10
2022-09-24T21:26:24.929Z,14.00
2022-09-24T21:28:57.890Z,13.90
2022-09-24T21:31:28.807Z,13.80
2022-09-24T21:33:56.268Z,13.80
2022-09-24T21:36:25.744Z,13.90
2022-09-24T21:38:57.346Z,14.00
2022-09-24T21:41:26.382Z,13.90
2022-09-24T21:43:56.579Z,13.90
2022-09-24T21:46:24.670Z,14.00
2022-09-24T21:48:51.771Z,14.00
2022-09-24T21:51:21.437Z,14.10
2022-09-24T21:53:57.504Z,14.20
2022-09-24T21:56:24.924Z,14.10
2022-09-24T21:58:53.440Z,14.10
2022-09-24T22:01:25.895Z,14.20
2022-09-24T22:04:00.346Z,14.20
2022-09-24T22:06:29.145Z,14.20
2022-09-24T22:08:57.943Z,14.30
2022-09-24T22:11:26.346Z,14.30
2022-09-24T22:13:53.749Z,14.40
2022-09-24T22:16:20.981Z,14.40
2022-09-24T22:18:47.933Z,14.40
2022-09-24T22:21:15.164Z,14.50
2022-09-24T22:23:42.101Z,14.50
2022-09-24T22:26:10.167Z,14.50
2022-09-24T22:28:37.935Z,14.50
2022-09-24T22:31:07.879Z,14.40
2022-09-24T22:33:53.229Z,14.50
2022-09-24T22:36:20.155Z,14.50
2022-09-24T22:38:49.300Z,14.50
2022-09-24T22:41:16.044Z,14.50
2022-09-24T22:43:42.673Z,14.50
2022-09-24T22:46:11.896Z,14.50
2022-09-24T22:48:39.395Z,14.50
2022-09-24T22:51:07.786Z,14.50
2022-09-24T22:53:35.979Z,14.50
2022-09-24T22:56:06.641Z,14.40
2022-09-24T22:58:34.408Z,14.50
2022-09-24T23:01:10.888Z,14.50
2022-09-24T23:03:38.237Z,14.50
2022-09-24T23:06:06.103Z,14.50
2022-09-24T23:08:34.586Z,14.50
2022-09-24T23:11:22.592Z,14.60
2022-09-24T23:14:02.622Z,14.50
2022-09-24T23:16:35.241Z,14.50
2022-09-24T23:19:08.206Z,14.60
2022-09-24T23:21:35.401Z,14.60
2022-09-24T23:24:06.122Z,14.60
2022-09-24T23:26:32.818Z,14.60
2022-09-24T23:29:00.799Z,14.60
2022-09-24T23:31:34.291Z,14.60
2022-09-24T23:34:01.468Z,14.60
2022-09-24T23:36:33.327Z,14.50
2022-09-24T23:39:01.080Z,14.50
2022-09-24T23:41:28.948Z,14.40
2022-09-24T23:43:55.771Z,14.40
2022-09-24T23:46:22.493Z,14.40
2022-09-24T23:48:49.207Z,14.40
2022-09-24T23:51:15.844Z,14.40
2022-09-24T23:53:42.466Z,14.40
2022-09-24T23:56:09.409Z,14.40
2022-09-24T23:58:36.229Z,14.40
